Time;durP1;ratioP1;P1;durP2;ratioP2;P2;SDS_P1;SDS_P2;PMS_P1;PMS_P2;Temp;Humidity;BMP_temperature;BMP_pressure;BME280_temperature;BME280_humidity;BME280_pressure;Samples;Min_cycle;Max_cycle;Signal;HPM_P1;HPM_P2
2024/02/29 06:42:10;;;;;;;;;5.00;2.75;;;;;;;;5105649;27;13417;-67
2024/02/29 06:44:35;;;;;;;;;1.00;1.00;;;;;;;;5108240;28;11382;-67
2024/02/29 06:47:01;;;;;;;;;1.00;1.00;;;;;;;;5108420;28;8804;-67
2024/02/29 06:49:26;;;;;;;;;2.00;2.00;;;;;;;;5108260;28;8886;-69
2024/02/29 06:51:51;;;;;;;;;2.00;2.00;;;;;;;;5108189;28;9634;-67
2024/02/29 06:54:17;;;;;;;;;1.50;1.50;;;;;;;;5108308;28;8791;-75
2024/02/29 06:56:43;;;;;;;;;5.25;2.25;;;;;;;;5106944;28;8893;-72
2024/02/29 06:59:08;;;;;;;;;2.00;2.00;;;;;;;;5108112;28;12110;-70
2024/02/29 07:01:34;;;;;;;;;1.00;1.00;;;;;;;;5108292;28;8825;-66
2024/02/29 07:03:59;;;;;;;;;2.25;1.00;;;;;;;;5108140;28;8819;-67
2024/02/29 07:06:25;;;;;;;;;4.50;2.75;;;;;;;;5108106;28;8898;-64
2024/02/29 07:08:50;;;;;;;;;4.25;4.25;;;;;;;;5107888;28;8814;-65
2024/02/29 07:11:15;;;;;;;;;1.00;1.00;;;;;;;;5107683;28;8927;-65
2024/02/29 07:13:40;;;;;;;;;1.50;0.00;;;;;;;;5108048;28;8792;-64
2024/02/29 07:16:06;;;;;;;;;1.00;1.00;;;;;;;;5108218;28;8882;-64
2024/02/29 07:18:31;;;;;;;;;1.25;1.00;;;;;;;;5107871;28;8869;-63
2024/02/29 07:20:56;;;;;;;;;1.75;0.00;;;;;;;;5107754;28;8815;-63
2024/02/29 07:23:23;;;;;;;;;11.50;9.25;;;;;;;;5106530;28;8800;-65
2024/02/29 07:25:48;;;;;;;;;7.00;7.00;;;;;;;;5107886;28;8776;-65
2024/02/29 07:28:14;;;;;;;;;1.00;1.00;;;;;;;;5106151;28;12389;-65
2024/02/29 07:30:39;;;;;;;;;2.25;2.25;;;;;;;;5107700;28;8829;-64
2024/02/29 07:33:04;;;;;;;;;0.25;0.25;;;;;;;;5107578;28;8788;-64
2024/02/29 07:35:33;;;;;;;;;3.25;0.50;;;;;;;;5107179;28;8804;-64
2024/02/29 07:37:58;;;;;;;;;0.75;0.25;;;;;;;;5106305;28;8780;-64
2024/02/29 07:40:24;;;;;;;;;2.00;1.00;;;;;;;;5105366;28;11056;-64
2024/02/29 07:42:49;;;;;;;;;0.00;0.00;;;;;;;;5106880;28;8832;-65
2024/02/29 07:45:14;;;;;;;;;1.75;0.25;;;;;;;;5105104;28;8796;-64
2024/02/29 07:47:40;;;;;;;;;0.00;0.00;;;;;;;;5106816;28;9004;-65
2024/02/29 07:50:06;;;;;;;;;0.00;0.00;;;;;;;;5106854;28;8918;-65
2024/02/29 07:52:31;;;;;;;;;0.00;0.00;;;;;;;;5099017;28;8837;-64
2024/02/29 07:54:57;;;;;;;;;0.00;0.00;;;;;;;;5093585;28;8930;-63
2024/02/29 07:57:22;;;;;;;;;1.00;0.75;;;;;;;;5092890;28;9714;-65
2024/02/29 07:59:47;;;;;;;;;0.75;0.75;;;;;;;;5092917;28;8841;-65
2024/02/29 08:02:13;;;;;;;;;0.00;0.00;;;;;;;;5093519;28;8849;-65
2024/02/29 08:04:39;;;;;;;;;0.00;0.00;;;;;;;;5093492;28;8779;-65
2024/02/29 08:07:05;;;;;;;;;0.00;0.00;;;;;;;;5093415;28;8773;-65
2024/02/29 08:09:30;;;;;;;;;0.75;0.75;;;;;;;;5093340;28;10670;-65
2024/02/29 08:11:55;;;;;;;;;1.00;1.00;;;;;;;;5093372;28;8786;-65
2024/02/29 08:14:21;;;;;;;;;1.00;0.00;;;;;;;;5093311;28;8803;-66
2024/02/29 08:16:46;;;;;;;;;1.00;0.00;;;;;;;;5093367;28;8756;-65
2024/02/29 08:19:11;;;;;;;;;0.75;0.75;;;;;;;;5091794;28;8820;-64
2024/02/29 08:21:37;;;;;;;;;0.00;0.00;;;;;;;;5087664;28;8847;-64
2024/02/29 08:24:02;;;;;;;;;0.00;0.00;;;;;;;;5091762;28;8890;-65
2024/02/29 08:26:28;;;;;;;;;0.25;0.25;;;;;;;;5092849;28;8796;-65
2024/02/29 08:28:53;;;;;;;;;1.00;0.00;;;;;;;;5093008;28;8768;-65
2024/02/29 08:31:18;;;;;;;;;1.75;1.50;;;;;;;;5092849;28;8912;-65
2024/02/29 08:33:43;;;;;;;;;0.75;0.50;;;;;;;;5092880;28;8764;-65
2024/02/29 08:36:10;;;;;;;;;0.00;0.00;;;;;;;;5092584;28;8784;-67
2024/02/29 08:38:37;;;;;;;;;1.00;1.00;;;;;;;;5092809;28;8772;-66
2024/02/29 08:41:04;;;;;;;;;1.00;1.00;;;;;;;;5090943;28;10645;-67
2024/02/29 08:43:29;;;;;;;;;1.00;1.00;;;;;;;;5092360;28;11047;-66
2024/02/29 08:45:54;;;;;;;;;1.50;1.50;;;;;;;;5091780;28;10404;-66
2024/02/29 08:48:20;;;;;;;;;0.75;0.00;;;;;;;;5092152;28;8905;-66
2024/02/29 08:50:45;;;;;;;;;0.00;0.00;;;;;;;;5090420;28;8823;-66
2024/02/29 08:53:10;;;;;;;;;2.00;1.00;;;;;;;;5091840;28;8796;-66
2024/02/29 08:55:36;;;;;;;;;0.75;0.75;;;;;;;;5091798;28;8800;-66
2024/02/29 08:58:01;;;;;;;;;0.00;0.00;;;;;;;;5091135;28;8918;-65
2024/02/29 09:00:26;;;;;;;;;0.75;0.75;;;;;;;;5091817;28;9556;-67
2024/02/29 09:02:52;;;;;;;;;1.00;0.00;;;;;;;;5092120;28;8768;-66
2024/02/29 09:05:17;;;;;;;;;1.50;0.50;;;;;;;;5091131;28;8795;-69
2024/02/29 09:07:42;;;;;;;;;0.50;0.50;;;;;;;;5092138;28;8886;-70
2024/02/29 09:10:09;;;;;;;;;1.50;0.00;;;;;;;;5091955;28;8830;-73
2024/02/29 09:12:34;;;;;;;;;2.00;1.00;;;;;;;;5091647;28;8903;-64
2024/02/29 09:15:01;;;;;;;;;0.25;0.00;;;;;;;;5091370;28;11033;-67
2024/02/29 09:17:27;;;;;;;;;3.00;0.00;;;;;;;;5091911;28;8773;-65
2024/02/29 09:19:52;;;;;;;;;0.00;0.00;;;;;;;;5091223;28;10602;-62
2024/02/29 09:22:17;;;;;;;;;1.00;1.00;;;;;;;;5091798;28;8857;-65
2024/02/29 09:24:42;;;;;;;;;0.00;0.00;;;;;;;;5091181;28;8788;-66
2024/02/29 09:27:08;;;;;;;;;0.00;0.00;;;;;;;;5091129;28;8752;-64
2024/02/29 09:29:33;;;;;;;;;0.67;0.00;;;;;;;;5089854;28;8788;-64
2024/02/29 09:31:59;;;;;;;;;0.00;0.00;;;;;;;;5091196;28;8803;-64
2024/02/29 09:34:25;;;;;;;;;1.00;0.25;;;;;;;;5091556;28;8768;-64
2024/02/29 09:36:50;;;;;;;;;0.00;0.00;;;;;;;;5091653;28;9497;-67
2024/02/29 09:39:16;;;;;;;;;0.00;0.00;;;;;;;;5091484;28;8772;-66
2024/02/29 09:41:41;;;;;;;;;0.00;0.00;;;;;;;;5091414;28;8885;-65
2024/02/29 09:44:08;;;;;;;;;0.00;0.00;;;;;;;;5091564;28;8780;-69
2024/02/29 09:46:33;;;;;;;;;0.50;0.50;;;;;;;;5091356;28;8830;-66
2024/02/29 09:48:58;;;;;;;;;0.00;0.00;;;;;;;;5091169;28;8787;-66
2024/02/29 09:51:24;;;;;;;;;0.00;0.00;;;;;;;;5091418;28;8799;-67
2024/02/29 09:53:52;;;;;;;;;1.00;1.00;;;;;;;;5089873;28;8799;-67
2024/02/29 09:56:22;;;;;;;;;1.00;1.00;;;;;;;;5091259;28;8792;-68
2024/02/29 09:58:49;;;;;;;;;0.50;0.50;;;;;;;;5091069;28;8792;-68
2024/02/29 10:01:14;;;;;;;;;1.67;1.00;;;;;;;;5091141;28;8811;-69
2024/02/29 10:03:40;;;;;;;;;1.00;0.00;;;;;;;;5090975;28;8873;-68
2024/02/29 10:06:06;;;;;;;;;1.67;1.67;;;;;;;;5089008;28;8842;-66
2024/02/29 10:08:31;;;;;;;;;1.00;1.00;;;;;;;;5089234;28;10314;-67
2024/02/29 10:10:57;;;;;;;;;1.00;1.00;;;;;;;;5089942;28;8788;-66
2024/02/29 10:13:22;;;;;;;;;1.75;1.00;;;;;;;;5091100;28;8780;-65
2024/02/29 10:15:50;;;;;;;;;1.00;1.00;;;;;;;;5090791;28;8776;-66
2024/02/29 10:18:15;;;;;;;;;1.25;1.00;;;;;;;;5091625;28;8800;-67
2024/02/29 10:20:42;;;;;;;;;2.00;2.00;;;;;;;;5089625;28;9572;-66
2024/02/29 10:23:14;;;;;;;;;1.25;1.25;;;;;;;;5090920;28;8788;-66
2024/02/29 10:25:40;;;;;;;;;1.00;1.00;;;;;;;;5090975;28;9782;-67
2024/02/29 10:28:06;;;;;;;;;2.50;1.25;;;;;;;;5090889;28;9609;-67
2024/02/29 10:30:31;;;;;;;;;2.50;1.50;;;;;;;;5090888;28;8795;-67
2024/02/29 10:32:57;;;;;;;;;3.00;1.00;;;;;;;;5090883;28;9803;-66
2024/02/29 10:35:23;;;;;;;;;2.00;1.00;;;;;;;;5090815;28;8784;-67
2024/02/29 10:37:50;;;;;;;;;2.00;2.00;;;;;;;;5090727;28;9632;-67
2024/02/29 10:40:16;;;;;;;;;2.67;2.00;;;;;;;;5090515;28;8791;-66
2024/02/29 10:42:41;;;;;;;;;2.50;2.00;;;;;;;;5090778;28;9402;-66
2024/02/29 10:45:12;;;;;;;;;2.00;2.00;;;;;;;;5090980;28;8791;-66
2024/02/29 10:47:38;;;;;;;;;3.00;3.00;;;;;;;;5090882;28;8768;-67
2024/02/29 10:50:08;;;;;;;;;2.50;2.50;;;;;;;;5089269;28;10480;-68
2024/02/29 10:52:38;;;;;;;;;5.00;5.00;;;;;;;;5090680;28;9721;-67
2024/02/29 10:55:12;;;;;;;;;5.50;4.00;;;;;;;;5090707;28;9778;-67
2024/02/29 10:58:01;;;;;;;;;7.00;5.00;;;;;;;;5090530;28;9928;-66
2024/02/29 11:00:27;;;;;;;;;6.50;5.00;;;;;;;;5090429;28;10065;-66
2024/02/29 11:02:53;;;;;;;;;7.00;6.00;;;;;;;;5090809;28;10074;-68
2024/02/29 11:05:19;;;;;;;;;5.50;5.50;;;;;;;;5090447;28;8907;-67
2024/02/29 11:07:44;;;;;;;;;10.00;8.00;;;;;;;;5090443;28;10269;-66
2024/02/29 11:10:10;;;;;;;;;11.00;7.00;;;;;;;;5090324;28;12214;-64
2024/02/29 11:12:38;;;;;;;;;9.00;7.75;;;;;;;;5090371;28;8764;-66
2024/02/29 11:15:09;;;;;;;;;9.25;8.25;;;;;;;;5090379;28;8833;-65
2024/02/29 11:17:34;;;;;;;;;8.00;7.25;;;;;;;;5089591;28;10337;-64
2024/02/29 11:20:03;;;;;;;;;5.00;5.00;;;;;;;;5090159;28;10436;-67
2024/02/29 11:22:32;;;;;;;;;9.25;9.00;;;;;;;;5090430;28;8772;-66
2024/02/29 11:24:59;;;;;;;;;8.00;7.75;;;;;;;;5088930;28;11217;-66
2024/02/29 11:27:34;;;;;;;;;12.25;8.25;;;;;;;;5091517;28;10437;-67
2024/02/29 11:30:00;;;;;;;;;9.50;9.00;;;;;;;;5094164;28;10592;-66
2024/02/29 11:32:26;;;;;;;;;16.50;12.00;;;;;;;;5093344;28;10642;-66
2024/02/29 11:34:51;;;;;;;;;10.25;8.75;;;;;;;;5093642;28;8820;-65
2024/02/29 11:37:18;;;;;;;;;12.25;9.25;;;;;;;;5090295;28;10363;-64
2024/02/29 11:39:44;;;;;;;;;7.25;7.00;;;;;;;;5093882;28;8826;-64
2024/02/29 11:42:09;;;;;;;;;14.50;10.00;;;;;;;;5091954;28;10480;-65
2024/02/29 11:44:34;;;;;;;;;11.75;10.00;;;;;;;;5093582;28;8799;-66
2024/02/29 11:47:00;;;;;;;;;11.00;11.00;;;;;;;;5093480;28;8795;-66
2024/02/29 11:49:26;;;;;;;;;13.25;10.25;;;;;;;;5093387;28;8795;-64
2024/02/29 11:51:52;;;;;;;;;11.50;9.75;;;;;;;;5093499;28;8808;-66
2024/02/29 11:54:17;;;;;;;;;12.50;12.50;;;;;;;;5093669;28;8848;-64
2024/02/29 11:56:42;;;;;;;;;13.00;9.75;;;;;;;;5093177;28;11042;-64
2024/02/29 11:59:13;;;;;;;;;15.75;12.50;;;;;;;;5093327;28;8792;-64
2024/02/29 12:01:40;;;;;;;;;9.25;9.25;;;;;;;;5093427;28;8816;-64
2024/02/29 12:04:06;;;;;;;;;14.50;12.00;;;;;;;;5092879;28;10559;-64
2024/02/29 12:06:32;;;;;;;;;16.00;14.00;;;;;;;;5093372;28;10664;-67
2024/02/29 12:08:59;;;;;;;;;12.50;11.00;;;;;;;;5093281;28;11696;-64
2024/02/29 12:11:24;;;;;;;;;15.25;14.50;;;;;;;;5093151;28;12169;-65
2024/02/29 12:13:49;;;;;;;;;17.00;14.75;;;;;;;;5093258;28;10870;-65
2024/02/29 12:16:15;;;;;;;;;15.25;14.75;;;;;;;;5093493;28;8852;-64
2024/02/29 12:18:40;;;;;;;;;18.50;15.75;;;;;;;;5092946;28;8804;-65
2024/02/29 12:21:07;;;;;;;;;14.00;14.00;;;;;;;;5092829;28;9571;-65
2024/02/29 12:23:32;;;;;;;;;16.00;15.00;;;;;;;;5092945;28;8772;-65
2024/02/29 12:26:10;;;;;;;;;14.50;13.75;;;;;;;;5092700;28;10948;-65
2024/02/29 12:28:35;;;;;;;;;13.75;13.75;;;;;;;;5092870;28;8804;-66
2024/02/29 12:31:01;;;;;;;;;16.50;14.25;;;;;;;;5092910;28;10737;-65
2024/02/29 12:33:27;;;;;;;;;14.00;14.00;;;;;;;;5091320;28;8873;-64
2024/02/29 12:35:52;;;;;;;;;12.75;12.75;;;;;;;;5092588;28;8772;-65
2024/02/29 12:38:18;;;;;;;;;15.00;15.00;;;;;;;;5092316;28;10904;-65
2024/02/29 12:40:44;;;;;;;;;16.00;15.00;;;;;;;;5092421;28;8808;-65
2024/02/29 12:43:15;;;;;;;;;14.75;13.75;;;;;;;;5092379;28;10902;-65
2024/02/29 12:45:41;;;;;;;;;18.25;15.25;;;;;;;;5090976;28;8977;-65
2024/02/29 12:48:06;;;;;;;;;19.50;15.00;;;;;;;;5090397;28;11575;-65
2024/02/29 12:50:32;;;;;;;;;19.00;17.25;;;;;;;;5083295;28;8918;-65
2024/02/29 12:52:57;;;;;;;;;18.25;18.00;;;;;;;;5092263;28;8814;-65
2024/02/29 12:55:22;;;;;;;;;16.75;15.75;;;;;;;;5092244;28;8768;-65
2024/02/29 12:57:48;;;;;;;;;15.00;13.75;;;;;;;;5092168;28;8882;-65
2024/02/29 13:00:21;;;;;;;;;22.50;16.00;;;;;;;;5092120;28;8882;-65
2024/02/29 13:02:47;;;;;;;;;16.50;14.75;;;;;;;;5092185;28;8795;-65
2024/02/29 13:05:12;;;;;;;;;19.50;15.50;;;;;;;;5085851;28;11054;-65
2024/02/29 13:07:38;;;;;;;;;17.25;16.50;;;;;;;;5076629;28;8912;-65
2024/02/29 13:10:04;;;;;;;;;18.75;17.75;;;;;;;;5071889;28;8852;-65
2024/02/29 13:12:29;;;;;;;;;18.25;17.50;;;;;;;;5071764;28;8795;-65
2024/02/29 13:14:54;;;;;;;;;20.00;18.75;;;;;;;;5071677;28;11217;-65
2024/02/29 13:17:20;;;;;;;;;20.00;15.25;;;;;;;;5072064;28;8799;-65
2024/02/29 13:19:45;;;;;;;;;19.00;17.25;;;;;;;;5085482;28;8811;-65
2024/02/29 13:22:10;;;;;;;;;18.25;16.50;;;;;;;;5091729;28;8832;-65
2024/02/29 13:24:35;;;;;;;;;19.75;18.75;;;;;;;;5091803;28;8780;-65
2024/02/29 13:27:01;;;;;;;;;20.00;18.50;;;;;;;;5091611;28;8902;-65
2024/02/29 13:29:26;;;;;;;;;19.00;19.00;;;;;;;;5091753;28;8779;-65
2024/02/29 13:31:51;;;;;;;;;17.50;17.50;;;;;;;;5090382;28;8808;-64
2024/02/29 13:34:16;;;;;;;;;20.00;16.25;;;;;;;;5091576;28;8772;-66
2024/02/29 13:36:42;;;;;;;;;20.00;20.00;;;;;;;;5091337;28;9684;-65
2024/02/29 13:39:09;;;;;;;;;21.25;19.25;;;;;;;;5091477;28;8775;-65
2024/02/29 13:41:34;;;;;;;;;19.75;16.50;;;;;;;;5091334;28;8836;-64
2024/02/29 13:44:00;;;;;;;;;20.25;18.00;;;;;;;;5091388;28;11241;-65
2024/02/29 13:46:28;;;;;;;;;19.25;17.25;;;;;;;;5091374;28;8799;-64
2024/02/29 13:48:53;;;;;;;;;20.00;20.00;;;;;;;;5091235;28;11412;-65
2024/02/29 13:51:18;;;;;;;;;17.00;15.00;;;;;;;;5083264;28;11638;-65
2024/02/29 13:53:43;;;;;;;;;19.75;17.50;;;;;;;;5071055;28;8763;-65
2024/02/29 13:56:09;;;;;;;;;19.25;17.75;;;;;;;;5071069;28;8801;-65
2024/02/29 13:58:34;;;;;;;;;23.25;20.00;;;;;;;;5070973;28;8771;-65
2024/02/29 14:00:59;;;;;;;;;20.25;18.50;;;;;;;;5070816;28;8810;-65
2024/02/29 14:03:24;;;;;;;;;18.50;18.00;;;;;;;;5070909;28;8814;-65
2024/02/29 14:05:52;;;;;;;;;17.00;17.00;;;;;;;;5070806;28;8766;-65
2024/02/29 14:08:17;;;;;;;;;18.50;14.50;;;;;;;;5070843;28;8779;-66
2024/02/29 14:10:42;;;;;;;;;15.75;13.50;;;;;;;;5070997;28;11289;-65
2024/02/29 14:13:08;;;;;;;;;16.75;15.25;;;;;;;;5070680;28;8774;-65
2024/02/29 14:15:33;;;;;;;;;15.00;14.25;;;;;;;;5070700;28;8794;-65
2024/02/29 14:17:58;;;;;;;;;14.25;14.25;;;;;;;;5071142;28;9593;-65
2024/02/29 14:20:23;;;;;;;;;15.75;14.00;;;;;;;;5089766;28;8812;-65
2024/02/29 14:22:49;;;;;;;;;11.75;11.75;;;;;;;;5090688;28;8764;-65
2024/02/29 14:25:14;;;;;;;;;16.50;14.00;;;;;;;;5090776;28;8898;-65
2024/02/29 14:27:39;;;;;;;;;13.75;12.50;;;;;;;;5091037;28;8849;-65
2024/02/29 14:30:08;;;;;;;;;16.75;14.00;;;;;;;;5090790;28;8794;-65
2024/02/29 14:32:34;;;;;;;;;16.25;13.75;;;;;;;;5089481;28;8799;-65
2024/02/29 14:34:59;;;;;;;;;15.50;13.25;;;;;;;;5090574;28;11191;-66
2024/02/29 14:37:24;;;;;;;;;9.00;9.00;;;;;;;;5090553;28;8776;-65
2024/02/29 14:39:50;;;;;;;;;11.50;11.50;;;;;;;;5090718;28;8808;-64
2024/02/29 14:42:15;;;;;;;;;14.75;12.50;;;;;;;;5090831;28;8811;-64
2024/02/29 14:44:41;;;;;;;;;13.00;12.00;;;;;;;;5090597;28;8792;-64
2024/02/29 14:47:06;;;;;;;;;16.50;12.75;;;;;;;;5090635;28;8776;-64
2024/02/29 14:49:31;;;;;;;;;13.00;12.00;;;;;;;;5089220;28;8851;-64
2024/02/29 14:51:57;;;;;;;;;17.00;13.00;;;;;;;;5090384;28;8857;-65
2024/02/29 14:54:22;;;;;;;;;11.25;10.25;;;;;;;;5090432;28;9486;-65
2024/02/29 14:56:47;;;;;;;;;20.50;15.50;;;;;;;;5090572;28;8776;-64
2024/02/29 14:59:13;;;;;;;;;15.00;12.50;;;;;;;;5090499;28;8776;-64
2024/02/29 15:01:38;;;;;;;;;17.75;15.25;;;;;;;;5090399;28;8923;-65
2024/02/29 15:04:03;;;;;;;;;15.00;13.75;;;;;;;;5094557;28;8752;-65
2024/02/29 15:06:28;;;;;;;;;14.00;13.00;;;;;;;;5094344;28;8815;-65
2024/02/29 15:08:54;;;;;;;;;13.25;13.00;;;;;;;;5094394;28;8768;-65
2024/02/29 15:11:19;;;;;;;;;15.00;14.00;;;;;;;;5094331;28;8845;-65
2024/02/29 15:13:44;;;;;;;;;15.00;12.75;;;;;;;;5094436;28;8788;-65
2024/02/29 15:16:10;;;;;;;;;16.25;13.00;;;;;;;;5094578;28;9616;-66
2024/02/29 15:18:35;;;;;;;;;12.75;12.25;;;;;;;;5094793;28;8776;-65
2024/02/29 15:21:00;;;;;;;;;14.00;12.25;;;;;;;;5094060;28;8847;-66
2024/02/29 15:23:26;;;;;;;;;14.00;9.75;;;;;;;;5094155;28;8894;-65
2024/02/29 15:25:51;;;;;;;;;14.25;13.25;;;;;;;;5094158;28;8784;-65
2024/02/29 15:28:16;;;;;;;;;13.50;13.25;;;;;;;;5094099;28;8849;-65
2024/02/29 15:30:42;;;;;;;;;14.50;12.75;;;;;;;;5094143;28;9500;-65
2024/02/29 15:33:07;;;;;;;;;15.75;11.75;;;;;;;;5094334;28;8792;-65
2024/02/29 15:35:32;;;;;;;;;14.00;12.50;;;;;;;;5093920;28;8776;-64
2024/02/29 15:37:58;;;;;;;;;12.50;12.50;;;;;;;;5094236;28;8760;-64
2024/02/29 15:40:23;;;;;;;;;15.00;13.00;;;;;;;;5093851;28;8842;-63
2024/02/29 15:42:49;;;;;;;;;15.25;15.25;;;;;;;;5093937;28;8768;-64
2024/02/29 15:45:14;;;;;;;;;16.50;14.00;;;;;;;;5093818;28;8776;-64
2024/02/29 15:47:40;;;;;;;;;23.75;21.00;;;;;;;;5093839;28;8791;-64
2024/02/29 15:50:07;;;;;;;;;24.25;18.50;;;;;;;;5093522;28;8784;-64
2024/02/29 15:52:33;;;;;;;;;18.00;15.00;;;;;;;;5093899;28;8807;-64
2024/02/29 15:54:58;;;;;;;;;16.50;14.75;;;;;;;;5093490;28;11403;-64
2024/02/29 15:57:25;;;;;;;;;14.00;12.75;;;;;;;;5092407;28;8787;-64
2024/02/29 15:59:50;;;;;;;;;15.50;13.75;;;;;;;;5093726;28;8818;-64
2024/02/29 16:02:15;;;;;;;;;8.75;8.75;;;;;;;;5093416;28;11422;-64
2024/02/29 16:04:41;;;;;;;;;12.00;11.25;;;;;;;;5093472;28;8780;-64
2024/02/29 16:07:06;;;;;;;;;12.00;11.75;;;;;;;;5093761;28;8858;-64
2024/02/29 16:09:32;;;;;;;;;12.50;10.00;;;;;;;;5093397;28;9489;-64
2024/02/29 16:11:57;;;;;;;;;13.75;11.00;;;;;;;;5110106;28;8801;-63
2024/02/29 16:14:23;;;;;;;;;10.75;9.00;;;;;;;;5096547;27;8899;-65
2024/02/29 16:16:48;;;;;;;;;12.00;9.00;;;;;;;;5101204;28;8812;-65
2024/02/29 16:19:15;;;;;;;;;12.75;10.25;;;;;;;;5102376;27;8792;-65
2024/02/29 16:21:40;;;;;;;;;10.75;10.75;;;;;;;;5092973;28;8824;-65
2024/02/29 16:24:06;;;;;;;;;12.50;11.75;;;;;;;;5099206;28;11226;-65
2024/02/29 16:26:31;;;;;;;;;11.00;10.25;;;;;;;;5105884;28;8819;-65
2024/02/29 16:28:56;;;;;;;;;9.50;8.25;;;;;;;;5091808;28;8812;-66
2024/02/29 16:31:21;;;;;;;;;10.00;10.00;;;;;;;;5091903;28;8801;-65
2024/02/29 16:33:47;;;;;;;;;8.00;7.75;;;;;;;;5092352;28;8785;-66
2024/02/29 16:36:13;;;;;;;;;9.00;8.00;;;;;;;;5092284;28;8784;-65
2024/02/29 16:38:40;;;;;;;;;11.25;11.25;;;;;;;;5095744;28;8789;-65
2024/02/29 16:41:05;;;;;;;;;15.25;12.25;;;;;;;;5089377;28;11478;-64
2024/02/29 16:43:30;;;;;;;;;9.00;8.50;;;;;;;;5092042;28;11480;-64
2024/02/29 16:45:56;;;;;;;;;12.75;12.00;;;;;;;;5092310;28;8784;-65
2024/02/29 16:48:21;;;;;;;;;13.00;13.00;;;;;;;;5091428;28;9558;-65
2024/02/29 16:50:46;;;;;;;;;10.50;10.50;;;;;;;;5090366;28;8780;-64
2024/02/29 16:53:11;;;;;;;;;12.00;9.00;;;;;;;;5091903;28;8778;-64
2024/02/29 16:55:37;;;;;;;;;11.25;11.25;;;;;;;;5088004;28;8800;-64
2024/02/29 16:58:02;;;;;;;;;13.00;11.00;;;;;;;;5098731;28;9511;-64
2024/02/29 17:00:28;;;;;;;;;12.75;12.25;;;;;;;;5091163;28;8832;-64
2024/02/29 17:02:53;;;;;;;;;16.75;13.50;;;;;;;;5091918;28;8762;-64
2024/02/29 17:05:19;;;;;;;;;12.00;11.50;;;;;;;;5091698;28;11461;-64
2024/02/29 17:07:44;;;;;;;;;14.00;14.00;;;;;;;;5090425;28;8792;-66
2024/02/29 17:10:10;;;;;;;;;13.25;12.25;;;;;;;;5092048;28;8817;-65
2024/02/29 17:12:35;;;;;;;;;11.75;11.25;;;;;;;;5085186;28;8776;-64
2024/02/29 17:15:00;;;;;;;;;10.00;10.00;;;;;;;;5091762;28;8811;-63
2024/02/29 17:17:26;;;;;;;;;11.00;11.00;;;;;;;;5092900;28;8782;-65
2024/02/29 17:19:51;;;;;;;;;10.25;10.25;;;;;;;;5096022;28;9499;-64
2024/02/29 17:22:19;;;;;;;;;16.25;16.25;;;;;;;;5091866;28;8820;-64
2024/02/29 17:24:45;;;;;;;;;8.00;8.00;;;;;;;;5090838;28;8770;-65
2024/02/29 17:27:10;;;;;;;;;12.00;11.25;;;;;;;;5090096;28;11345;-66
2024/02/29 17:29:37;;;;;;;;;12.25;9.00;;;;;;;;5091362;28;11499;-66
2024/02/29 17:32:02;;;;;;;;;12.00;8.75;;;;;;;;5096330;28;8781;-66
2024/02/29 17:34:27;;;;;;;;;11.50;11.50;;;;;;;;5091435;28;11387;-66
2024/02/29 17:36:53;;;;;;;;;11.25;8.75;;;;;;;;5089371;28;8778;-66
2024/02/29 17:39:18;;;;;;;;;10.00;10.00;;;;;;;;5090658;28;9521;-66
2024/02/29 17:41:45;;;;;;;;;10.50;7.50;;;;;;;;5090828;28;8875;-66
2024/02/29 17:44:10;;;;;;;;;12.00;12.00;;;;;;;;5091391;28;8861;-66
2024/02/29 17:46:35;;;;;;;;;10.75;8.50;;;;;;;;5091272;28;11382;-66
2024/02/29 17:49:01;;;;;;;;;11.25;9.00;;;;;;;;5091334;28;8902;-66
2024/02/29 17:51:26;;;;;;;;;10.00;9.00;;;;;;;;5091185;28;9535;-65
2024/02/29 17:53:51;;;;;;;;;11.00;10.00;;;;;;;;5088664;28;8781;-65
2024/02/29 17:56:18;;;;;;;;;9.00;8.00;;;;;;;;5091146;28;8790;-65
2024/02/29 17:58:43;;;;;;;;;10.00;10.00;;;;;;;;5092607;28;8830;-65
2024/02/29 18:01:09;;;;;;;;;11.75;10.00;;;;;;;;5091660;28;11451;-66
2024/02/29 18:03:34;;;;;;;;;12.25;11.25;;;;;;;;5090716;28;8978;-68
2024/02/29 18:05:59;;;;;;;;;12.00;8.50;;;;;;;;5090959;28;8804;-66
2024/02/29 18:08:24;;;;;;;;;11.25;11.25;;;;;;;;5089801;28;8782;-66
2024/02/29 18:10:50;;;;;;;;;11.00;8.75;;;;;;;;5065353;28;10647;-66
2024/02/29 18:13:15;;;;;;;;;15.50;13.00;;;;;;;;5036023;28;8802;-66
2024/02/29 18:15:40;;;;;;;;;15.75;12.75;;;;;;;;5042450;28;8835;-67
2024/02/29 18:18:07;;;;;;;;;17.25;17.00;;;;;;;;5038692;28;8900;-66
2024/02/29 18:20:32;;;;;;;;;24.00;23.50;;;;;;;;5039887;28;8912;-66
2024/02/29 18:22:57;;;;;;;;;20.75;17.25;;;;;;;;5043427;28;11497;-66
2024/02/29 18:25:23;;;;;;;;;19.00;18.25;;;;;;;;5036672;28;8840;-66
2024/02/29 18:27:48;;;;;;;;;16.25;16.00;;;;;;;;5039586;28;8810;-66
2024/02/29 18:30:13;;;;;;;;;25.25;18.75;;;;;;;;5038727;28;9845;-66
2024/02/29 18:32:39;;;;;;;;;17.50;17.50;;;;;;;;5040516;28;8813;-66
2024/02/29 18:35:09;;;;;;;;;19.75;18.00;;;;;;;;5037833;28;9541;-67
2024/02/29 18:37:35;;;;;;;;;16.75;16.75;;;;;;;;5037297;28;8798;-67
2024/02/29 18:40:01;;;;;;;;;17.00;17.00;;;;;;;;5036274;28;11583;-67
2024/02/29 18:42:28;;;;;;;;;13.50;13.50;;;;;;;;5042364;28;11521;-65
2024/02/29 18:44:53;;;;;;;;;16.50;14.00;;;;;;;;5041894;28;11520;-65
2024/02/29 18:47:18;;;;;;;;;13.50;12.00;;;;;;;;5029368;28;11617;-65
2024/02/29 18:49:44;;;;;;;;;14.50;12.75;;;;;;;;5034519;28;8785;-67
2024/02/29 18:52:09;;;;;;;;;18.75;16.25;;;;;;;;5040246;28;8813;-65
2024/02/29 18:54:34;;;;;;;;;13.00;12.50;;;;;;;;5041752;28;8801;-66
2024/02/29 18:57:00;;;;;;;;;16.25;13.75;;;;;;;;5044727;28;9652;-65
2024/02/29 18:59:25;;;;;;;;;12.75;12.00;;;;;;;;5041140;28;8839;-66
2024/02/29 19:01:55;;;;;;;;;13.75;13.00;;;;;;;;5039365;28;8868;-67
2024/02/29 19:04:20;;;;;;;;;13.00;12.50;;;;;;;;5038134;28;8796;-66
2024/02/29 19:06:48;;;;;;;;;13.00;11.50;;;;;;;;5042192;28;12343;-66
2024/02/29 19:09:13;;;;;;;;;17.50;14.00;;;;;;;;5038816;28;8901;-65
2024/02/29 19:11:40;;;;;;;;;16.00;12.50;;;;;;;;5040060;28;12191;-68
2024/02/29 19:14:05;;;;;;;;;12.00;11.75;;;;;;;;5041642;28;9593;-70
2024/02/29 19:16:30;;;;;;;;;14.00;13.00;;;;;;;;5042128;28;11477;-67
2024/02/29 19:18:56;;;;;;;;;12.75;11.25;;;;;;;;5029676;28;8838;-68
2024/02/29 19:21:21;;;;;;;;;14.25;13.75;;;;;;;;5036808;28;8887;-67
2024/02/29 19:23:46;;;;;;;;;12.75;11.75;;;;;;;;5042333;28;8794;-67
2024/02/29 19:26:12;;;;;;;;;13.75;12.00;;;;;;;;5037296;28;8824;-69
2024/02/29 19:28:38;;;;;;;;;12.00;11.00;;;;;;;;5033116;28;8817;-67
2024/02/29 19:31:04;;;;;;;;;14.00;13.00;;;;;;;;5037455;28;8801;-66
2024/02/29 19:33:32;;;;;;;;;13.50;11.50;;;;;;;;5038501;28;9588;-67
2024/02/29 19:35:59;;;;;;;;;12.00;12.00;;;;;;;;5041964;28;11494;-66
2024/02/29 19:38:24;;;;;;;;;10.50;9.00;;;;;;;;5036092;28;11440;-67
2024/02/29 19:40:49;;;;;;;;;8.25;8.25;;;;;;;;5035235;28;11474;-68
2024/02/29 19:43:15;;;;;;;;;13.75;12.00;;;;;;;;5038662;28;8901;-68
2024/02/29 19:45:43;;;;;;;;;11.50;9.00;;;;;;;;5031223;28;8788;-67
2024/02/29 19:48:08;;;;;;;;;12.25;11.00;;;;;;;;5029558;28;11425;-67
2024/02/29 19:50:34;;;;;;;;;10.00;9.00;;;;;;;;5035108;28;11426;-67
2024/02/29 19:52:59;;;;;;;;;8.00;8.00;;;;;;;;5040305;28;8897;-69
2024/02/29 19:55:24;;;;;;;;;8.25;8.25;;;;;;;;5041651;28;9529;-75
2024/02/29 19:57:50;;;;;;;;;11.25;9.50;;;;;;;;5040658;28;8814;-66
2024/02/29 20:00:17;;;;;;;;;12.25;9.00;;;;;;;;5043971;28;8831;-66
2024/02/29 20:02:43;;;;;;;;;12.00;11.50;;;;;;;;5042889;28;8805;-66
2024/02/29 20:05:09;;;;;;;;;12.25;11.25;;;;;;;;5040521;28;11482;-67
2024/02/29 20:07:34;;;;;;;;;11.25;9.00;;;;;;;;5039922;28;11440;-65
2024/02/29 20:10:00;;;;;;;;;10.75;10.75;;;;;;;;5039208;28;12232;-65
2024/02/29 20:12:26;;;;;;;;;12.25;11.00;;;;;;;;5046287;28;8824;-67
2024/02/29 20:14:52;;;;;;;;;16.50;11.75;;;;;;;;5043559;28;8882;-66
2024/02/29 20:17:17;;;;;;;;;10.00;10.00;;;;;;;;5039706;28;9557;-68
2024/02/29 20:19:43;;;;;;;;;9.50;9.50;;;;;;;;5037682;28;11460;-69
2024/02/29 20:22:08;;;;;;;;;11.50;10.50;;;;;;;;5037294;28;8836;-69
2024/02/29 20:24:33;;;;;;;;;8.75;7.50;;;;;;;;5031779;28;8796;-66
2024/02/29 20:26:58;;;;;;;;;8.25;4.75;;;;;;;;5031519;28;8808;-66
2024/02/29 20:29:23;;;;;;;;;12.00;12.00;;;;;;;;5031095;28;8822;-66
2024/02/29 20:31:51;;;;;;;;;12.25;11.50;;;;;;;;5031926;28;8804;-65
2024/02/29 20:34:16;;;;;;;;;13.75;13.00;;;;;;;;5013177;28;8814;-66
2024/02/29 20:36:43;;;;;;;;;12.50;11.00;;;;;;;;5031114;28;12609;-64
2024/02/29 20:39:08;;;;;;;;;11.50;10.25;;;;;;;;5030608;28;8896;-64
2024/02/29 20:41:33;;;;;;;;;12.25;12.00;;;;;;;;5031407;28;12235;-65
2024/02/29 20:44:00;;;;;;;;;12.00;9.25;;;;;;;;5031781;28;8796;-66
2024/02/29 20:46:25;;;;;;;;;14.75;13.00;;;;;;;;5031672;28;9521;-66
2024/02/29 20:48:51;;;;;;;;;13.75;13.00;;;;;;;;5026712;28;11501;-63
2024/02/29 20:51:16;;;;;;;;;14.75;13.00;;;;;;;;5031328;28;8887;-64
2024/02/29 20:53:41;;;;;;;;;14.00;13.75;;;;;;;;5029448;28;8819;-66
2024/02/29 20:56:06;;;;;;;;;12.50;12.00;;;;;;;;5031517;28;8822;-66
2024/02/29 20:58:32;;;;;;;;;13.00;13.00;;;;;;;;5030806;28;9550;-66
2024/02/29 21:00:58;;;;;;;;;13.75;12.50;;;;;;;;5033279;28;8813;-66
2024/02/29 21:03:23;;;;;;;;;14.00;14.00;;;;;;;;5035885;28;8796;-66
2024/02/29 21:05:49;;;;;;;;;13.00;13.00;;;;;;;;5034681;28;11541;-65
2024/02/29 21:08:15;;;;;;;;;14.75;14.75;;;;;;;;5035705;28;8781;-65
2024/02/29 21:10:40;;;;;;;;;17.50;14.75;;;;;;;;5039801;28;8927;-65